Share

Buffalo, IN (47925)

Bluewater Drive (KINMONTI6) Elev 623 ft | 40.76 °N, 86.75 °W | Change Station

Current weather conditions updated 5 minutes ago

Clear
Clear
45.7 °F
Feels Like 46 °F
N
0.0
Wind Variable Wind from East
Sunrise 7:00 AM
Sunset 8:31 PM
Moon Waning Gibbous

Today is forecast to be Warmer than yesterday.

Pressure 30.30 in
Visibility 10.0 miles
Clouds Clear
Windchill 46 °F
Dew Point 45 °F
Humidity 98%
Rainfall 0.00 in
Snow Depth Not available.
UV 0 out of 16
Pollen 10.90 out of 12
Air Quality Not available.
Flu Activity Sporadic
METAR KGGP 200515Z AUTO 08007KT 10SM CLR 07/M03 A3030 RMK AO2

More Conditions Fewer Conditions

Pressure 30.30 in
Visibility 10.0 miles
Clouds Clear
Windchill 46 °F
Dew Point 45 °F
Humidity 98%
Rainfall 0.00 in
Snow Depth Not available.
UV 0 out of 16
Pollen 10.90 out of 12
Air Quality Not available.
Flu Activity Sporadic
METAR KGGP 200515Z AUTO 08007KT 10SM CLR 07/M03 A3030 RMK AO2

More Conditions Fewer Conditions

10-Day Weather Forecast

Almanac

Astronomy

Apr. 20, 2014 Rise Set
Actual Time 7:00 AM EDT 8:31 PM EDT
Civil Twilight 6:31 AM EDT 9:00 PM EDT
Nautical Twilight 5:56 AM EDT 9:35 PM EDT
Astronomical Twilight 5:20 AM EDT 10:12 PM EDT
Moon 1:12 AM EDT 11:19 AM EDT
Length of Visible Light 14h 29m
Length of Day
13h 31m
Tomorrow will be 2m 31s longer.
Waning Gibbous, 73% of the Moon is Illuminated
Today
Waning Gibbous
Apr 22
Last Quarter
Apr 29
New
May 6
First Quarter
May 14
Full

Today's Extremes

State Highs State Lows

Community

  • Sunny day at the coast-Cape Arago Lighthouse
    Sunny day at the coast-Cape Arago Lighthouse
  • Cherry Blossoms
    Cherry Blossoms
  • White-Crowned Sparrow
    White-Crowned Sparrow
  • New Day
    New Day
  • Happy Easter!
    Happy Easter!

WunderPhotos

Upload Photos

1,703,086 photos uploaded!

WunderBlogs® & News

Nearby

Snow Depth

Station Depth Elevation
No new snow has been reported.

Coastal Water Temperatures

Place Temperature
No Stations Reporting

Earthquake Activity

City Distance Mag. Time & Date
No recent earthquake activity has been reported nearby.
Minimum magnitude displayed is 2.5.

Nearby Weather Stations

Station Location Temp. Windchill Dew Point Humidity Wind Precip. Elev Updated Type
Bluewater Drive, Monticello, IN 45.7 °F 46 °F 45 °F 98% East  at  0.0 mph - / hr 623 ft 1:28 AM EDT Normal
Downtown, Rensselaer, IN 47.5 °F 44 °F 37 °F 67% ESE  at  6.9 mph 0.00 in / hr 666 ft 12:34 AM CDT Rapid Fire
East of Town, North Judson, IN 48.3 °F 48 °F 30 °F 49% ESE  at  3.0 mph 0.00 in / hr 700 ft 12:30 AM CDT Normal
Windsor Forest, Logansport, IN 46.4 °F 46 °F 34 °F 61% ESE  at  0.0 mph 0.00 in / hr 669 ft 1:34 AM EDT Rapid Fire

Show More Stations Show Fewer Stations

What do you think?

We're not finished. Please let us know what you like, what you don't like, and what you are still missing.